createdAt,value
2019-04-23T00:00:13.234Z,15.46
2019-04-23T00:02:51.158Z,15.45
2019-04-23T00:05:33.532Z,15.42
2019-04-23T00:10:25.649Z,15.35
2019-04-23T00:12:53.084Z,15.28
2019-04-23T00:17:48.429Z,15.20
2019-04-23T00:20:25.669Z,15.19
2019-04-23T00:23:00.741Z,14.91
2019-04-23T00:25:55.947Z,15.10
2019-04-23T00:28:20.439Z,15.06
2019-04-23T00:30:55.361Z,15.00
2019-04-23T00:35:50.120Z,14.88
2019-04-23T00:40:51.282Z,14.82
2019-04-23T00:43:34.167Z,14.79
2019-04-23T00:45:59.710Z,14.79
2019-04-23T00:48:32.838Z,14.70
2019-04-23T00:53:22.136Z,14.63
2019-04-23T00:55:55.664Z,14.60
2019-04-23T00:58:30.169Z,14.55
2019-04-23T01:00:55.738Z,14.55
2019-04-23T01:03:29.507Z,14.52
2019-04-23T01:06:08.144Z,14.48
2019-04-23T01:08:27.917Z,14.46
2019-04-23T01:11:01.865Z,14.41
2019-04-23T01:13:31.580Z,14.41
2019-04-23T01:16:00.753Z,14.38
2019-04-23T01:18:42.050Z,14.36
2019-04-23T01:20:53.646Z,14.29
2019-04-23T01:23:16.046Z,14.25
2019-04-23T01:25:57.711Z,14.25
2019-04-23T01:28:46.321Z,14.26
2019-04-23T01:31:18.241Z,14.20
2019-04-23T01:33:47.103Z,14.16
2019-04-23T01:38:45.568Z,14.10
2019-04-23T01:41:13.146Z,14.06
2019-04-23T01:43:41.053Z,13.99
2019-04-23T01:46:16.411Z,13.73
2019-04-23T01:48:48.555Z,13.94
2019-04-23T01:51:15.256Z,13.94
2019-04-23T01:53:45.239Z,13.85
2019-04-23T01:56:13.997Z,13.81
2019-04-23T01:58:45.119Z,13.80
2019-04-23T02:01:12.884Z,13.78
2019-04-23T02:03:52.254Z,13.76
2019-04-23T02:06:15.132Z,13.74
2019-04-23T02:08:47.312Z,13.74
2019-04-23T02:11:11.436Z,13.73
2019-04-23T02:16:17.535Z,13.71
2019-04-23T02:18:53.249Z,13.66
2019-04-23T02:21:27.306Z,13.60
2019-04-23T02:24:04.766Z,13.57
2019-04-23T02:26:39.922Z,13.55
2019-04-23T02:31:46.681Z,13.53
2019-04-23T02:34:00.523Z,13.53
2019-04-23T02:36:32.557Z,13.51
2019-04-23T02:38:56.042Z,13.47
2019-04-23T02:44:21.769Z,13.42
2019-04-23T02:46:26.478Z,13.42
2019-04-23T02:49:05.180Z,13.41
2019-04-23T02:54:17.236Z,13.34
2019-04-23T03:01:51.360Z,13.29
2019-04-23T03:04:08.429Z,13.29
2019-04-23T03:09:00.886Z,13.24
2019-04-23T03:11:37.489Z,13.23
2019-04-23T03:14:15.531Z,13.23
2019-04-23T03:19:24.136Z,13.21
2019-04-23T03:21:59.739Z,13.13
2019-04-23T03:24:38.932Z,13.06
2019-04-23T03:29:46.959Z,13.09
2019-04-23T03:37:19.882Z,13.02
2019-04-23T03:39:53.048Z,12.98
2019-04-23T03:44:45.054Z,13.01
2019-04-23T03:52:14.063Z,13.08
2019-04-23T03:54:37.719Z,13.03
2019-04-23T03:57:15.599Z,12.99
2019-04-23T04:02:20.755Z,12.95
2019-04-23T04:04:32.833Z,12.90
2019-04-23T04:07:10.679Z,12.94
2019-04-23T04:09:42.648Z,12.89
2019-04-23T04:12:14.305Z,12.89
2019-04-23T04:14:57.585Z,12.87
2019-04-23T04:17:17.901Z,12.84
2019-04-23T04:19:44.828Z,12.82
2019-04-23T04:22:21.711Z,12.81
2019-04-23T04:24:48.139Z,12.80
2019-04-23T04:27:22.099Z,12.75
2019-04-23T04:29:47.261Z,12.73
2019-04-23T04:32:24.662Z,12.69
2019-04-23T04:37:37.761Z,12.70
2019-04-23T04:42:10.423Z,12.67
2019-04-23T04:47:14.858Z,12.68
2019-04-23T04:52:26.775Z,12.72
2019-04-23T04:54:24.268Z,12.71
2019-04-23T04:59:45.679Z,12.69
2019-04-23T05:04:46.333Z,12.75
2019-04-23T05:09:48.263Z,12.83
2019-04-23T05:17:30.180Z,12.91
2019-04-23T05:19:52.223Z,12.96
2019-04-23T05:22:44.229Z,13.01
2019-04-23T05:24:46.520Z,13.05
2019-04-23T05:27:17.541Z,13.10
2019-04-23T05:29:53.862Z,13.15
2019-04-23T05:32:23.723Z,13.24
2019-04-23T05:34:52.125Z,13.28
2019-04-23T05:37:29.420Z,13.37
2019-04-23T05:39:50.101Z,13.48
2019-04-23T05:42:20.112Z,13.53
2019-04-23T05:44:50.291Z,13.53
2019-04-23T05:47:20.337Z,13.57
2019-04-23T05:49:56.177Z,13.55
2019-04-23T05:52:17.696Z,13.63
2019-04-23T05:57:18.385Z,13.75
2019-04-23T05:59:46.819Z,13.80
2019-04-23T06:02:19.796Z,13.82
2019-04-23T06:04:53.205Z,13.86
2019-04-23T06:07:28.890Z,13.90
2019-04-23T06:09:56.389Z,14.07
2019-04-23T06:12:21.921Z,14.17
2019-04-23T06:14:52.565Z,14.30
2019-04-23T06:17:29.792Z,14.36
2019-04-23T06:19:52.977Z,14.51
2019-04-23T06:24:48.785Z,14.47
2019-04-23T06:27:31.011Z,14.57
2019-04-23T06:29:54.932Z,14.63
2019-04-23T06:32:22.938Z,14.74
2019-04-23T06:34:52.876Z,14.82
2019-04-23T06:37:25.810Z,14.89
2019-04-23T06:39:55.159Z,15.04
2019-04-23T06:42:17.695Z,15.04
2019-04-23T06:47:20.099Z,15.28
2019-04-23T06:49:55.354Z,15.38
2019-04-23T06:52:21.680Z,15.41
2019-04-23T06:55:10.131Z,15.55
2019-04-23T06:57:22.270Z,15.38
2019-04-23T06:59:54.748Z,15.66
2019-04-23T07:02:30.170Z,15.75
2019-04-23T07:09:51.682Z,16.31
2019-04-23T07:14:59.575Z,16.52
2019-04-23T07:17:24.668Z,16.57
2019-04-23T07:19:58.146Z,16.55
2019-04-23T07:22:21.551Z,16.54
2019-04-23T07:24:52.853Z,16.72
2019-04-23T07:30:03.610Z,17.21
2019-04-23T07:32:23.048Z,17.25
2019-04-23T07:35:04.208Z,17.43
2019-04-23T07:45:35.400Z,17.34
2019-04-23T07:58:23.708Z,18.35
2019-04-23T08:00:45.153Z,18.40
2019-04-23T08:05:39.682Z,18.61
2019-04-23T08:08:22.713Z,18.80
2019-04-23T08:11:00.490Z,18.73
2019-04-23T08:13:18.562Z,18.79
2019-04-23T08:15:51.976Z,18.54
2019-04-23T08:23:16.441Z,19.24
2019-04-23T08:26:02.475Z,19.23
2019-04-23T08:28:37.147Z,19.22
2019-04-23T08:30:52.771Z,19.17
2019-04-23T08:33:56.861Z,19.06
2019-04-23T08:36:20.382Z,18.88
2019-04-23T08:38:44.690Z,19.05
2019-04-23T08:41:28.142Z,19.37
2019-04-23T08:43:57.333Z,19.89
2019-04-23T08:46:35.552Z,19.77
2019-04-23T08:48:58.630Z,19.84
2019-04-23T08:51:37.390Z,19.93
2019-04-23T08:53:55.484Z,19.96
2019-04-23T08:56:35.079Z,20.10
2019-04-23T08:58:53.666Z,20.30
2019-04-23T09:01:30.890Z,20.23
2019-04-23T09:03:52.666Z,20.49
2019-04-23T09:08:56.864Z,21.08
2019-04-23T09:13:57.660Z,20.96
2019-04-23T09:16:28.529Z,20.83
2019-04-23T09:19:11.111Z,20.84
2019-04-23T09:21:30.973Z,21.05
2019-04-23T09:23:59.091Z,21.33
2019-04-23T09:26:25.942Z,21.30
2019-04-23T09:29:12.194Z,21.15
2019-04-23T09:34:20.815Z,21.22
2019-04-23T09:36:45.309Z,21.28
2019-04-23T09:39:20.867Z,21.19
2019-04-23T09:42:08.990Z,21.26
2019-04-23T09:47:34.093Z,21.78
2019-04-23T09:49:55.537Z,22.09
2019-04-23T09:52:27.574Z,21.94
2019-04-23T09:57:24.654Z,22.41
2019-04-23T09:59:58.214Z,22.50
2019-04-23T10:02:19.343Z,22.32
2019-04-23T10:04:46.337Z,22.44
2019-04-23T10:07:15.304Z,22.92
2019-04-23T10:09:30.149Z,22.89
2019-04-23T10:11:58.844Z,23.09
2019-04-23T10:14:28.430Z,22.74
2019-04-23T10:16:58.052Z,23.28
2019-04-23T10:19:26.772Z,23.48
2019-04-23T10:21:55.689Z,23.15
2019-04-23T10:24:25.307Z,23.38
2019-04-23T10:26:53.888Z,23.25
2019-04-23T10:29:25.366Z,23.46
2019-04-23T10:31:55.565Z,23.71
2019-04-23T10:34:25.333Z,23.98
2019-04-23T10:37:13.605Z,24.04
2019-04-23T10:39:45.628Z,24.13
2019-04-23T10:42:14.074Z,24.27
2019-04-23T10:44:46.459Z,24.41
2019-04-23T10:48:12.202Z,23.63
2019-04-23T10:53:18.757Z,23.89
2019-04-23T10:55:47.955Z,23.97
2019-04-23T10:58:10.319Z,23.94
2019-04-23T11:00:37.628Z,24.14
2019-04-23T11:03:20.501Z,24.49
2019-04-23T11:08:12.707Z,24.74
2019-04-23T11:10:41.016Z,24.24
2019-04-23T11:13:33.836Z,24.56
2019-04-23T11:16:25.477Z,24.91
2019-04-23T11:18:36.525Z,25.39
2019-04-23T11:20:56.397Z,25.71
2019-04-23T11:23:32.578Z,25.99
2019-04-23T11:25:59.107Z,25.69
2019-04-23T11:31:09.121Z,26.39
2019-04-23T11:33:54.355Z,26.36
2019-04-23T11:38:49.022Z,25.51
2019-04-23T11:41:09.629Z,25.09
2019-04-23T11:43:38.045Z,25.52
2019-04-23T11:46:17.934Z,25.78
2019-04-23T11:49:04.709Z,26.10
2019-04-23T11:51:41.103Z,26.02
2019-04-23T11:53:44.333Z,26.11
2019-04-23T11:56:18.307Z,25.95
2019-04-23T11:58:42.786Z,26.28
2019-04-23T12:01:40.880Z,25.98
2019-04-23T12:03:56.666Z,26.05
2019-04-23T12:06:23.697Z,26.29
2019-04-23T12:09:25.673Z,26.39
2019-04-23T12:11:58.598Z,26.17
2019-04-23T12:14:42.121Z,26.41
2019-04-23T12:17:13.337Z,26.51
2019-04-23T12:27:22.521Z,27.01
2019-04-23T12:29:37.452Z,26.98
2019-04-23T12:32:43.162Z,26.80
2019-04-23T12:35:14.223Z,26.82
2019-04-23T12:40:23.077Z,25.99
2019-04-23T12:45:29.109Z,25.49
2019-04-23T12:47:58.289Z,25.45
2019-04-23T12:52:47.227Z,25.30
2019-04-23T12:55:23.405Z,25.18
2019-04-23T12:57:47.296Z,25.16
2019-04-23T13:00:23.253Z,25.15
2019-04-23T13:05:23.127Z,24.93
2019-04-23T13:10:27.350Z,24.73
2019-04-23T13:13:04.551Z,24.28
2019-04-23T13:15:22.672Z,24.58
2019-04-23T13:25:34.963Z,24.61
2019-04-23T13:30:37.640Z,24.52
2019-04-23T13:33:18.064Z,24.51
2019-04-23T13:38:08.913Z,24.49
2019-04-23T13:40:39.399Z,24.30
2019-04-23T13:43:14.977Z,24.75
2019-04-23T13:53:17.807Z,24.85
2019-04-23T13:55:42.891Z,24.93
2019-04-23T13:58:15.236Z,25.04
2019-04-23T14:03:26.315Z,25.16
2019-04-23T14:05:51.273Z,25.01
2019-04-23T14:08:33.560Z,25.23
2019-04-23T14:13:37.123Z,25.66
2019-04-23T14:21:03.602Z,25.94
2019-04-23T14:28:28.057Z,25.78
2019-04-23T14:33:37.926Z,26.15
2019-04-23T14:35:49.800Z,26.07
2019-04-23T14:41:05.078Z,26.04
2019-04-23T14:46:22.991Z,26.17
2019-04-23T14:48:23.450Z,26.21
2019-04-23T14:51:09.881Z,26.45
2019-04-23T14:58:42.831Z,26.52
2019-04-23T15:03:44.441Z,26.60
2019-04-23T15:08:50.140Z,26.18
2019-04-23T15:11:20.863Z,26.11
2019-04-23T15:13:37.899Z,26.17
2019-04-23T15:18:55.169Z,25.94
2019-04-23T15:24:02.166Z,25.68
2019-04-23T15:27:21.887Z,25.63
2019-04-23T15:28:36.549Z,25.52
2019-04-23T15:31:24.736Z,25.49
2019-04-23T15:34:12.523Z,25.26
2019-04-23T15:36:52.444Z,25.27
2019-04-23T15:39:16.907Z,25.31
2019-04-23T15:41:31.820Z,25.31
2019-04-23T15:44:06.033Z,25.22
2019-04-23T15:49:07.984Z,25.22
2019-04-23T15:54:02.841Z,25.20
2019-04-23T15:56:37.073Z,25.27
2019-04-23T16:01:35.136Z,25.20
2019-04-23T16:03:31.939Z,25.10
2019-04-23T16:06:02.524Z,25.04
2019-04-23T16:09:05.522Z,25.00
2019-04-23T16:11:39.725Z,24.88
2019-04-23T16:19:07.768Z,24.71
2019-04-23T16:21:47.396Z,24.65
2019-04-23T16:24:16.496Z,24.54
2019-04-23T16:29:25.870Z,24.42
2019-04-23T16:31:41.378Z,24.46
2019-04-23T16:34:25.644Z,24.39
2019-04-23T16:36:55.571Z,24.37
2019-04-23T16:39:16.908Z,24.31
2019-04-23T16:41:57.479Z,24.34
2019-04-23T16:44:37.008Z,24.44
2019-04-23T16:46:56.367Z,24.41
2019-04-23T16:51:45.539Z,24.35
2019-04-23T16:54:24.571Z,24.23
2019-04-23T16:57:13.298Z,24.23
2019-04-23T16:59:18.431Z,24.29
2019-04-23T17:01:59.637Z,24.28
2019-04-23T17:04:24.467Z,24.31
2019-04-23T17:06:52.450Z,24.27
2019-04-23T17:09:35.560Z,24.29
2019-04-23T17:12:00.072Z,24.11
2019-04-23T17:14:19.023Z,23.96
2019-04-23T17:16:59.826Z,23.85
2019-04-23T17:19:22.424Z,23.73
2019-04-23T17:26:58.481Z,23.44
2019-04-23T17:29:28.596Z,23.32
2019-04-23T17:31:53.061Z,23.11
2019-04-23T17:34:30.693Z,23.03
2019-04-23T17:39:54.625Z,22.69
2019-04-23T17:42:27.332Z,22.48
2019-04-23T17:50:13.703Z,22.07
2019-04-23T17:55:13.025Z,21.80
2019-04-23T17:57:37.011Z,21.68
2019-04-23T18:02:55.499Z,21.37
2019-04-23T18:12:43.598Z,20.84
2019-04-23T18:15:13.037Z,20.82
2019-04-23T18:17:43.280Z,20.70
2019-04-23T18:20:16.756Z,20.62
2019-04-23T18:22:47.283Z,20.41
2019-04-23T18:25:16.875Z,20.28
2019-04-23T18:27:47.970Z,20.20
2019-04-23T18:30:47.555Z,20.06
2019-04-23T18:35:24.301Z,19.66
2019-04-23T18:38:00.568Z,19.53
2019-04-23T18:40:28.566Z,19.44
2019-04-23T18:43:07.346Z,19.43
2019-04-23T18:45:39.636Z,19.28
2019-04-23T18:48:28.781Z,19.26
2019-04-23T18:53:22.747Z,19.08
2019-04-23T18:58:21.951Z,18.97
2019-04-23T19:00:59.098Z,18.88
2019-04-23T19:03:36.621Z,18.77
2019-04-23T19:06:30.380Z,18.73
2019-04-23T19:11:44.459Z,18.64
2019-04-23T19:14:12.686Z,18.55
2019-04-23T19:16:41.590Z,18.57
2019-04-23T19:19:05.722Z,18.55
2019-04-23T19:21:57.296Z,18.56
2019-04-23T19:24:21.929Z,18.54
2019-04-23T19:31:56.700Z,18.52
2019-04-23T19:44:37.288Z,18.37
2019-04-23T19:47:01.712Z,18.34
2019-04-23T19:54:33.999Z,18.18
2019-04-23T19:56:55.224Z,18.12
2019-04-23T19:59:43.115Z,17.99
2019-04-23T20:04:07.942Z,17.81
2019-04-23T20:07:00.480Z,17.65
2019-04-23T20:11:42.558Z,17.34
2019-04-23T20:14:29.213Z,17.19
2019-04-23T20:16:59.802Z,17.05
2019-04-23T20:19:24.160Z,16.99
2019-04-23T20:21:52.985Z,16.94
2019-04-23T20:26:59.832Z,16.74
2019-04-23T20:39:38.497Z,16.37
2019-04-23T20:44:47.194Z,16.29
2019-04-23T20:47:09.916Z,16.23
2019-04-23T20:49:42.980Z,16.11
2019-04-23T20:52:09.556Z,16.04
2019-04-23T20:54:51.020Z,16.12
2019-04-23T21:00:06.743Z,16.20
2019-04-23T21:05:03.492Z,16.12
2019-04-23T21:07:41.884Z,16.11
2019-04-23T21:10:22.386Z,16.07
2019-04-23T21:12:50.052Z,16.08
2019-04-23T21:15:12.199Z,16.01
2019-04-23T21:17:46.627Z,16.07
2019-04-23T21:22:30.843Z,16.20
2019-04-23T21:25:00.116Z,16.21
2019-04-23T21:27:57.255Z,16.21
2019-04-23T21:30:09.097Z,16.22
2019-04-23T21:38:00.856Z,16.15
2019-04-23T21:40:48.869Z,16.11
2019-04-23T21:43:00.942Z,16.02
2019-04-23T21:45:31.945Z,15.90
2019-04-23T21:48:02.992Z,15.81
2019-04-23T21:50:39.559Z,15.80
2019-04-23T21:52:54.904Z,15.77
2019-04-23T21:55:31.086Z,15.70
2019-04-23T22:00:34.630Z,15.65
2019-04-23T22:03:06.742Z,15.66
2019-04-23T22:05:40.499Z,15.63
2019-04-23T22:10:25.437Z,15.61
2019-04-23T22:15:34.546Z,15.59
2019-04-23T22:18:18.287Z,15.54
2019-04-23T22:23:08.800Z,15.37
2019-04-23T22:25:32.937Z,15.26
2019-04-23T22:27:58.887Z,15.16
2019-04-23T22:30:33.320Z,15.09
2019-04-23T22:33:03.019Z,15.02
2019-04-23T22:35:30.155Z,14.97
2019-04-23T22:38:09.745Z,14.91
2019-04-23T22:40:25.099Z,14.81
2019-04-23T22:45:52.679Z,14.70
2019-04-23T22:48:03.003Z,14.62
2019-04-23T22:50:29.684Z,14.56
2019-04-23T22:53:04.990Z,14.50
2019-04-23T22:55:33.563Z,14.45
2019-04-23T22:58:08.196Z,14.49
2019-04-23T23:00:24.857Z,14.49
2019-04-23T23:03:06.308Z,14.54
2019-04-23T23:05:50.012Z,14.59
2019-04-23T23:08:07.861Z,14.60
2019-04-23T23:10:38.189Z,14.58
2019-04-23T23:13:15.566Z,14.54
2019-04-23T23:15:41.728Z,14.47
2019-04-23T23:20:47.806Z,14.38
2019-04-23T23:23:16.403Z,14.32
2019-04-23T23:25:39.712Z,14.21
2019-04-23T23:28:16.089Z,14.17
2019-04-23T23:30:47.171Z,14.15
2019-04-23T23:33:12.932Z,13.94
2019-04-23T23:38:16.713Z,14.16
2019-04-23T23:41:05.329Z,14.13
2019-04-23T23:43:22.613Z,14.14
2019-04-23T23:45:48.500Z,14.14
2019-04-23T23:48:13.045Z,14.06
2019-04-23T23:50:55.122Z,13.93
2019-04-23T23:53:27.749Z,13.88
2019-04-23T23:55:49.282Z,13.88
2019-04-23T23:58:23.540Z,13.86
